createdAt,value
2022-12-06T00:06:38.458Z,101479.50
2022-12-06T00:09:07.422Z,101481.13
2022-12-06T00:11:35.817Z,101484.41
2022-12-06T00:14:04.166Z,101490.69
2022-12-06T00:16:31.920Z,101488.34
2022-12-06T00:18:59.793Z,101488.34
2022-12-06T00:21:28.332Z,101488.34
2022-12-06T00:23:56.267Z,101498.41
2022-12-06T00:26:25.496Z,101493.13
2022-12-06T00:28:53.135Z,101492.31
2022-12-06T00:31:21.037Z,101492.31
2022-12-06T00:33:49.207Z,101496.75
2022-12-06T00:36:18.163Z,101493.94
2022-12-06T00:38:45.786Z,101483.56
2022-12-06T00:41:13.830Z,101489.16
2022-12-06T00:43:42.970Z,101485.22
2022-12-06T00:46:12.351Z,101477.66
2022-12-06T00:48:40.004Z,101470.06
2022-12-06T00:51:08.027Z,101469.25
2022-12-06T00:53:35.868Z,101466.94
2022-12-06T00:56:03.522Z,101482.09
2022-12-06T00:58:31.151Z,101474.84
2022-12-06T01:47:40.519Z,101459.56
2022-12-06T01:50:09.742Z,101460.38
2022-12-06T01:52:37.668Z,101459.56
2022-12-06T01:55:05.512Z,101459.91
2022-12-06T01:57:33.087Z,101464.34
2022-12-06T02:00:01.159Z,101457.78
2022-12-06T02:46:45.057Z,101415.53
2022-12-06T02:49:12.705Z,101410.75
2022-12-06T02:51:40.332Z,101409.56
2022-12-06T02:54:08.708Z,101410.75
2022-12-06T02:56:36.461Z,101409.09
2022-12-06T02:59:04.417Z,101410.75
2022-12-06T03:46:57.813Z,101375.06
2022-12-06T03:49:25.842Z,101373.88
2022-12-06T03:51:53.498Z,101372.25
2022-12-06T03:54:21.439Z,101366.66
2022-12-06T03:56:49.046Z,101371.44
2022-12-06T03:59:16.625Z,101369.94
2022-12-06T04:45:38.225Z,101312.34
2022-12-06T04:48:06.022Z,101328.00
2022-12-06T04:50:33.669Z,101325.19
2022-12-06T04:53:01.229Z,101313.19
2022-12-06T04:55:28.832Z,101321.22
2022-12-06T04:57:56.444Z,101317.94
2022-12-06T05:32:40.150Z,101305.38
2022-12-06T05:35:08.183Z,101309.31
2022-12-06T05:37:35.927Z,101317.72
2022-12-06T05:40:03.760Z,101315.72
2022-12-06T05:42:31.580Z,101310.13
2022-12-06T05:44:59.110Z,101308.50
2022-12-06T05:47:26.685Z,101307.34
2022-12-06T05:49:55.607Z,101303.72
2022-12-06T05:52:23.225Z,101303.72
2022-12-06T05:54:51.139Z,101302.09
2022-12-06T05:57:18.721Z,101303.72
2022-12-06T05:59:46.250Z,101303.72
2022-12-06T06:02:14.001Z,101305.72
2022-12-06T06:04:41.636Z,101305.72
2022-12-06T06:07:10.579Z,101297.22
2022-12-06T06:09:38.205Z,101302.09
2022-12-06T06:12:12.111Z,101304.91
2022-12-06T06:14:40.134Z,101307.69
2022-12-06T06:17:07.994Z,101300.47
2022-12-06T06:19:35.617Z,101295.69
2022-12-06T06:22:03.229Z,101297.31
2022-12-06T06:24:36.997Z,101298.13
2022-12-06T06:27:04.595Z,101303.72
2022-12-06T06:29:32.222Z,101292.53
2022-12-06T06:31:59.877Z,101298.13
2022-12-06T06:34:27.573Z,101303.72
2022-12-06T06:36:55.122Z,101308.50
2022-12-06T06:39:22.806Z,101310.50
2022-12-06T06:41:52.120Z,101307.69
2022-12-06T06:44:19.686Z,101311.31
2022-12-06T06:46:47.251Z,101307.69
2022-12-06T06:49:14.964Z,101317.72
2022-12-06T06:51:42.541Z,101315.72
2022-12-06T06:54:10.241Z,101309.31
2022-12-06T06:56:37.922Z,101309.31
2022-12-06T06:59:06.894Z,101306.53
2022-12-06T07:01:34.529Z,101315.28
2022-12-06T07:04:02.662Z,101308.88
2022-12-06T07:06:30.237Z,101306.88
2022-12-06T07:08:57.890Z,101306.75
2022-12-06T07:11:25.479Z,101304.44
2022-12-06T07:13:53.309Z,101308.06
2022-12-06T07:16:22.697Z,101305.25
2022-12-06T07:18:50.356Z,101306.06
2022-12-06T07:21:18.415Z,101313.28
2022-12-06T07:23:45.947Z,101311.66
2022-12-06T07:26:14.008Z,101316.44
2022-12-06T07:28:42.362Z,101311.66
2022-12-06T07:31:10.400Z,101311.66
2022-12-06T07:33:39.619Z,101310.03
2022-12-06T07:36:12.818Z,101314.47
2022-12-06T07:38:40.849Z,101315.28
2022-12-06T07:41:29.033Z,101313.28
2022-12-06T07:44:14.476Z,101317.25
2022-12-06T07:46:42.064Z,101323.66
2022-12-06T07:49:11.059Z,101322.84
2022-12-06T07:51:40.005Z,101308.88
2022-12-06T07:54:07.611Z,101317.25
2022-12-06T07:56:35.393Z,101317.25
2022-12-06T07:59:02.933Z,101317.25
2022-12-06T08:01:30.536Z,101323.66
2022-12-06T08:04:00.442Z,101318.88
2022-12-06T08:06:32.245Z,101323.31
2022-12-06T08:09:04.293Z,101302.47
2022-12-06T08:11:34.555Z,101310.97
2022-12-06T08:14:05.569Z,101310.97
2022-12-06T08:16:36.849Z,101308.50
2022-12-06T08:19:08.288Z,101310.97
2022-12-06T08:21:40.899Z,101314.91
2022-12-06T08:24:13.274Z,101316.56
2022-12-06T08:26:45.217Z,101319.84
2022-12-06T08:29:14.995Z,101315.84
2022-12-06T08:31:44.565Z,101316.56
2022-12-06T08:34:15.816Z,101320.50
2022-12-06T08:36:47.016Z,101318.88
2022-12-06T08:39:15.814Z,101318.88
2022-12-06T08:41:58.500Z,101317.25
2022-12-06T08:44:28.226Z,101318.88
2022-12-06T08:46:57.412Z,101321.00
2022-12-06T08:49:26.727Z,101317.25
2022-12-06T08:51:59.515Z,101320.50
2022-12-06T08:54:30.658Z,101331.69
2022-12-06T08:57:02.776Z,101321.69
2022-12-06T08:59:35.356Z,101316.09
2022-12-06T09:02:06.573Z,101322.97
2022-12-06T09:04:37.620Z,101305.38
2022-12-06T09:07:12.064Z,101307.34
2022-12-06T09:09:42.435Z,101305.38
2022-12-06T09:12:12.149Z,101314.69
2022-12-06T09:14:41.960Z,101314.22
2022-12-06T09:17:10.193Z,101316.69
2022-12-06T09:19:39.211Z,101310.97
2022-12-06T09:22:10.567Z,101313.78
2022-12-06T09:24:40.293Z,101314.22
2022-12-06T09:27:09.575Z,101310.13
2022-12-06T09:29:40.914Z,101312.59
2022-12-06T09:32:11.234Z,101304.66
2022-12-06T09:34:39.488Z,101311.91
2022-12-06T09:37:12.009Z,101304.22
2022-12-06T09:39:44.520Z,101296.63
2022-12-06T09:42:18.897Z,101300.59
2022-12-06T09:44:55.605Z,101307.13
2022-12-06T09:47:28.569Z,101308.28
2022-12-06T09:50:01.646Z,101303.03
2022-12-06T09:52:36.193Z,101296.63
2022-12-06T09:55:12.861Z,101296.28
2022-12-06T09:57:45.193Z,101297.81
2022-12-06T10:00:22.332Z,101288.59
2022-12-06T10:03:03.640Z,101292.22
2022-12-06T10:05:34.648Z,101293.47
2022-12-06T10:08:10.681Z,101290.69
2022-12-06T10:10:44.981Z,101286.25
2022-12-06T10:13:14.818Z,101285.44
2022-12-06T10:15:49.605Z,101283.47
2022-12-06T10:18:27.100Z,101275.06
2022-12-06T10:20:59.084Z,101273.44
2022-12-06T10:23:35.297Z,101262.25
2022-12-06T10:26:07.765Z,101267.84
2022-12-06T10:28:41.470Z,101276.69
2022-12-06T10:31:14.862Z,101266.22
2022-12-06T10:33:48.117Z,101265.06
2022-12-06T10:36:19.772Z,101260.63
2022-12-06T10:38:53.558Z,101259.47
2022-12-06T10:41:27.553Z,101260.63
2022-12-06T10:43:59.131Z,101262.25
2022-12-06T10:46:47.307Z,101266.69
2022-12-06T10:49:20.378Z,101265.50
2022-12-06T10:51:49.465Z,101258.28
2022-12-06T10:54:24.017Z,101254.69
2022-12-06T10:56:52.734Z,101260.03
2022-12-06T10:59:22.625Z,101259.22
2022-12-06T11:01:53.036Z,101253.16
2022-12-06T11:04:26.336Z,101244.75
2022-12-06T11:06:58.751Z,101255.94
2022-12-06T11:09:32.239Z,101244.75
2022-12-06T11:12:00.523Z,101242.44
2022-12-06T11:14:32.266Z,101251.28
2022-12-06T11:17:01.208Z,101245.69
2022-12-06T11:19:31.422Z,101241.25
2022-12-06T11:22:00.271Z,101235.66
2022-12-06T11:24:29.843Z,101239.28
2022-12-06T11:26:58.738Z,101237.66
2022-12-06T11:29:26.610Z,101232.06
2022-12-06T11:31:54.674Z,101232.88
2022-12-06T11:34:23.419Z,101231.69
2022-12-06T11:36:55.297Z,101232.88
2022-12-06T11:39:25.883Z,101226.09
2022-12-06T11:41:55.638Z,101228.91
2022-12-06T11:44:25.649Z,101221.31
2022-12-06T11:46:54.921Z,101223.31
2022-12-06T11:49:28.224Z,101228.91
2022-12-06T11:51:55.905Z,101214.91
2022-12-06T11:54:23.907Z,101209.31
2022-12-06T11:56:51.497Z,101206.53
2022-12-06T11:59:25.009Z,101208.16
2022-12-06T12:01:53.628Z,101217.72
2022-12-06T12:04:32.199Z,101206.53
2022-12-06T12:07:00.234Z,101197.31
2022-12-06T12:09:28.890Z,101198.50
2022-12-06T12:11:58.135Z,101198.13
2022-12-06T12:14:27.650Z,101200.56
2022-12-06T12:16:56.964Z,101192.53
2022-12-06T12:19:29.498Z,101196.97
2022-12-06T12:21:57.211Z,101196.16
2022-12-06T12:27:45.215Z,101203.72
2022-12-06T12:30:31.012Z,101193.34
2022-12-06T12:33:19.547Z,101200.13
2022-12-06T12:35:47.701Z,101193.00
2022-12-06T12:38:16.690Z,101194.63
2022-12-06T12:40:44.989Z,101186.56
2022-12-06T12:43:16.417Z,101184.59
2022-12-06T12:46:03.351Z,101185.44
2022-12-06T12:48:31.092Z,101180.97
2022-12-06T12:50:59.536Z,101183.78
2022-12-06T12:53:30.198Z,101173.41
2022-12-06T12:56:06.626Z,101175.06
2022-12-06T12:58:36.149Z,101176.19
2022-12-06T13:01:07.103Z,101183.44
2022-12-06T13:03:50.758Z,101175.88
2022-12-06T13:06:26.588Z,101173.88
2022-12-06T13:08:54.213Z,101175.88
2022-12-06T13:11:21.811Z,101176.69
2022-12-06T13:13:50.706Z,101167.47
2022-12-06T13:16:20.897Z,101180.66
2022-12-06T13:18:48.947Z,101170.59
2022-12-06T13:21:20.775Z,101181.78
2022-12-06T13:23:48.394Z,101165.84
2022-12-06T13:26:16.880Z,101171.44
2022-12-06T13:28:45.427Z,101170.59
2022-12-06T13:31:14.286Z,101175.06
2022-12-06T13:33:44.187Z,101168.97
2022-12-06T13:36:12.000Z,101165.00
2022-12-06T13:38:39.870Z,101165.00
2022-12-06T13:41:07.471Z,101174.56
2022-12-06T13:43:56.820Z,101171.78
2022-12-06T13:46:31.214Z,101165.00
2022-12-06T13:49:00.810Z,101164.19
2022-12-06T13:51:44.334Z,101161.75
2022-12-06T13:54:36.260Z,101170.59
2022-12-06T13:57:04.703Z,101165.00
2022-12-06T13:59:34.085Z,101167.34
2022-12-06T14:02:01.748Z,101167.34
2022-12-06T14:04:37.910Z,101163.75
2022-12-06T14:09:37.628Z,101160.13
2022-12-06T14:12:07.990Z,101160.13
2022-12-06T14:14:36.722Z,101167.34
2022-12-06T14:17:08.237Z,101164.56
2022-12-06T14:19:44.697Z,101166.66
2022-12-06T14:22:19.838Z,101166.66
2022-12-06T14:24:57.640Z,101157.78
2022-12-06T14:27:28.317Z,101160.25
2022-12-06T14:30:02.509Z,101162.69
2022-12-06T14:32:39.244Z,101166.66
2022-12-06T14:35:16.205Z,101165.84
2022-12-06T14:37:50.350Z,101161.06
2022-12-06T14:40:45.090Z,101164.19
2022-12-06T14:43:15.094Z,101156.63
2022-12-06T14:45:45.810Z,101165.84
2022-12-06T14:48:14.330Z,101158.28
2022-12-06T14:50:43.155Z,101159.41
2022-12-06T14:53:12.835Z,101161.06
2022-12-06T14:55:52.277Z,101163.88
2022-12-06T14:58:21.420Z,101158.28
2022-12-06T15:00:49.781Z,101148.22
2022-12-06T15:03:28.986Z,101147.41
2022-12-06T15:06:11.515Z,101153.81
2022-12-06T15:08:39.178Z,101148.22
2022-12-06T15:11:07.372Z,101157.47
2022-12-06T15:13:34.011Z,101156.63
2022-12-06T15:16:02.862Z,101157.78
2022-12-06T15:18:32.920Z,101157.78
2022-12-06T15:21:00.476Z,101161.75
2022-12-06T15:23:30.541Z,101160.94
2022-12-06T15:25:58.203Z,101156.16
2022-12-06T15:28:26.683Z,101149.41
2022-12-06T15:30:54.290Z,101150.56
2022-12-06T15:33:24.188Z,101144.97
2022-12-06T15:35:54.158Z,101146.59
2022-12-06T15:38:22.559Z,101144.97
2022-12-06T15:40:51.872Z,101150.56
2022-12-06T15:43:26.761Z,101149.41
2022-12-06T15:45:54.438Z,101150.22
2022-12-06T15:48:21.970Z,101149.41
2022-12-06T15:50:49.594Z,101151.03
2022-12-06T15:53:17.636Z,101147.31
2022-12-06T15:55:45.222Z,101151.38
2022-12-06T15:58:14.766Z,101150.56
2022-12-06T16:00:42.420Z,101147.78
2022-12-06T16:03:10.016Z,101147.78
2022-12-06T16:05:37.608Z,101156.63
2022-12-06T16:08:05.362Z,101154.66
2022-12-06T16:11:03.494Z,101156.63
2022-12-06T16:13:23.912Z,101163.38
2022-12-06T16:15:52.284Z,101158.59
2022-12-06T16:18:19.974Z,101165.00
2022-12-06T16:20:47.557Z,101158.59
2022-12-06T16:26:25.120Z,101153.00
2022-12-06T16:28:56.766Z,101155.00
2022-12-06T16:31:28.161Z,101149.06
2022-12-06T16:33:58.790Z,101156.63
2022-12-06T16:36:27.696Z,101154.31
2022-12-06T16:38:58.852Z,101145.44
2022-12-06T16:41:32.527Z,101151.50
2022-12-06T16:44:05.353Z,101145.91
2022-12-06T16:46:37.847Z,101149.88
2022-12-06T16:49:43.462Z,101151.50
2022-12-06T16:51:55.698Z,101162.69
2022-12-06T16:54:23.366Z,101150.69
2022-12-06T16:56:50.995Z,101155.91
2022-12-06T16:59:19.929Z,101156.28
2022-12-06T17:01:47.723Z,101164.69
2022-12-06T17:04:15.394Z,101157.09
2022-12-06T17:06:42.981Z,101149.88
2022-12-06T17:09:10.843Z,101152.31
2022-12-06T17:12:11.881Z,101150.31
2022-12-06T17:14:45.197Z,101151.94
2022-12-06T17:17:17.309Z,101156.38
2022-12-06T17:19:48.897Z,101153.94
2022-12-06T17:22:20.788Z,101161.97
2022-12-06T17:24:51.791Z,101160.34
2022-12-06T17:27:23.288Z,101156.38
2022-12-06T17:29:56.643Z,101156.38
2022-12-06T17:32:28.213Z,101163.94
2022-12-06T17:34:56.718Z,101158.34
2022-12-06T17:37:26.729Z,101166.75
2022-12-06T17:39:57.754Z,101166.75
2022-12-06T17:42:45.257Z,101167.56
2022-12-06T17:45:15.085Z,101168.75
2022-12-06T17:47:45.287Z,101173.16
2022-12-06T17:50:17.357Z,101169.22
2022-12-06T17:52:49.745Z,101173.97
2022-12-06T17:55:22.961Z,101171.53
2022-12-06T17:57:54.299Z,101173.53
2022-12-06T18:00:27.065Z,101175.16
2022-12-06T18:02:57.244Z,101175.16
2022-12-06T18:05:27.178Z,101171.53
2022-12-06T18:07:58.215Z,101161.88
2022-12-06T18:10:27.618Z,101161.75
2022-12-06T18:12:57.719Z,101177.94
2022-12-06T18:15:41.819Z,101157.78
2022-12-06T18:18:09.634Z,101176.31
2022-12-06T18:20:37.185Z,101173.16
2022-12-06T18:23:04.807Z,101173.16
2022-12-06T18:25:32.582Z,101182.72
2022-12-06T18:28:01.933Z,101172.25
2022-12-06T18:30:31.381Z,101179.56
2022-12-06T18:33:03.320Z,101166.66
2022-12-06T18:35:32.567Z,101172.34
2022-12-06T18:38:04.277Z,101160.59
2022-12-06T18:40:33.970Z,101156.97
2022-12-06T18:43:03.517Z,101166.75
2022-12-06T18:45:32.822Z,101169.22
2022-12-06T18:48:04.826Z,101166.41
2022-12-06T18:50:35.986Z,101170.84
2022-12-06T18:53:06.662Z,101162.78
2022-12-06T18:55:34.975Z,101159.66
2022-12-06T18:58:07.974Z,101165.25
2022-12-06T19:00:37.192Z,101161.63
2022-12-06T19:03:04.787Z,101166.41
2022-12-06T19:06:00.886Z,101163.63
2022-12-06T19:08:19.921Z,101163.63
2022-12-06T19:10:47.814Z,101151.59
2022-12-06T19:13:15.758Z,101158.03
2022-12-06T19:15:44.876Z,101156.03
2022-12-06T19:18:13.732Z,101151.25
2022-12-06T19:20:41.601Z,101154.06
2022-12-06T19:23:12.806Z,101155.69
2022-12-06T19:25:40.488Z,101150.09
2022-12-06T19:28:09.972Z,101151.25
2022-12-06T19:30:37.787Z,101146.84
2022-12-06T19:33:06.825Z,101153.25
2022-12-06T19:35:34.481Z,101146.84
2022-12-06T19:38:02.554Z,101146.84
2022-12-06T19:40:30.402Z,101142.88
2022-12-06T19:43:15.633Z,101146.84
2022-12-06T19:45:43.498Z,101135.66
2022-12-06T19:48:12.520Z,101142.88
2022-12-06T19:50:40.175Z,101142.88
2022-12-06T19:53:07.794Z,101135.66
2022-12-06T19:55:35.340Z,101142.88
2022-12-06T19:58:02.992Z,101135.66
2022-12-06T20:00:30.651Z,101137.28
2022-12-06T20:02:58.293Z,101138.44
2022-12-06T20:05:27.373Z,101134.47
2022-12-06T20:07:55.030Z,101142.06
2022-12-06T20:10:22.657Z,101134.81
2022-12-06T20:12:50.278Z,101135.66
2022-12-06T20:15:17.958Z,101132.84
2022-12-06T20:17:45.756Z,101138.44
2022-12-06T20:20:13.466Z,101145.19
2022-12-06T20:22:42.808Z,101140.41
2022-12-06T20:25:10.535Z,101140.41
2022-12-06T20:27:53.221Z,101139.59
2022-12-06T20:30:21.340Z,101136.44
2022-12-06T20:32:48.960Z,101140.06
2022-12-06T20:35:16.710Z,101137.28
2022-12-06T20:37:47.080Z,101130.03
2022-12-06T20:40:15.162Z,101133.28
2022-12-06T20:45:21.864Z,101129.31
2022-12-06T20:47:50.286Z,101129.31
2022-12-06T20:50:17.915Z,101132.13
2022-12-06T20:52:46.976Z,101139.34
2022-12-06T20:55:15.180Z,101122.09
2022-12-06T20:57:42.804Z,101123.72
2022-12-06T21:00:11.866Z,101115.31
2022-12-06T21:02:39.722Z,101119.75
2022-12-06T21:05:07.560Z,101116.94
2022-12-06T21:07:35.212Z,101118.13
2022-12-06T21:10:04.853Z,101115.31
2022-12-06T21:12:32.547Z,101115.31
2022-12-06T21:15:00.194Z,101110.53
2022-12-06T21:17:27.764Z,101116.13
2022-12-06T21:19:55.402Z,101115.31
2022-12-06T21:22:23.011Z,101114.16
2022-12-06T21:24:50.590Z,101108.56
2022-12-06T21:27:19.524Z,101108.56
2022-12-06T21:29:48.283Z,101108.56
2022-12-06T21:32:15.886Z,101116.94
2022-12-06T21:34:46.603Z,101112.53
2022-12-06T21:37:14.594Z,101106.94
2022-12-06T21:39:46.246Z,101112.53
2022-12-06T21:42:15.529Z,101114.16
2022-12-06T21:44:44.512Z,101112.53
2022-12-06T21:47:12.144Z,101118.13
2022-12-06T21:49:39.931Z,101112.53
2022-12-06T21:52:09.385Z,101116.94
2022-12-06T21:54:37.336Z,101120.94
2022-12-06T21:57:04.937Z,101115.69
2022-12-06T21:59:32.648Z,101116.50
2022-12-06T22:05:56.027Z,101116.50
2022-12-06T22:08:23.753Z,101112.34
2022-12-06T22:10:52.605Z,101133.28
2022-12-06T22:13:20.241Z,101122.09
2022-12-06T22:15:47.827Z,101126.06
2022-12-06T22:18:15.703Z,101126.88
2022-12-06T22:20:43.287Z,101122.09
2022-12-06T22:23:12.230Z,101122.09
2022-12-06T22:25:39.863Z,101122.09
2022-12-06T23:06:09.335Z,101094.13
2022-12-06T23:08:37.141Z,101087.72
2022-12-06T23:11:05.289Z,101082.94
2022-12-06T23:13:32.895Z,101082.94
2022-12-06T23:16:01.125Z,101091.31
2022-12-06T23:18:28.858Z,101085.72
2022-12-06T23:21:03.540Z,101090.16
2022-12-06T23:23:32.511Z,101094.13
2022-12-06T23:26:03.694Z,101094.94
2022-12-06T23:28:31.404Z,101091.31
2022-12-06T23:45:28.702Z,101079.69
2022-12-06T23:47:57.783Z,101066.84
2022-12-06T23:50:25.400Z,101084.44
2022-12-06T23:52:53.087Z,101078.03
2022-12-06T23:55:20.672Z,101076.41
2022-12-06T23:57:49.587Z,101076.41
